sensor_id;sensor_type;location;lat;lon;timestamp;pressure;altitude;pressure_sealevel;temperature
30765;BMP180;494;48.744;10.106;2022-07-22T00:01:29;95502.00;;;19.50
30765;BMP180;494;48.744;10.106;2022-07-22T00:03:57;95716.00;;;19.10
30765;BMP180;494;48.744;10.106;2022-07-22T00:06:28;96270.00;;;18.70
30765;BMP180;494;48.744;10.106;2022-07-22T00:08:57;96208.00;;;19.50
30765;BMP180;494;48.744;10.106;2022-07-22T00:11:26;96098.00;;;19.60
30765;BMP180;494;48.744;10.106;2022-07-22T00:13:55;96242.00;;;19.40
30765;BMP180;494;48.744;10.106;2022-07-22T00:16:24;96055.00;;;17.40
30765;BMP180;494;48.744;10.106;2022-07-22T00:18:52;96100.00;;;19.30
30765;BMP180;494;48.744;10.106;2022-07-22T00:21:21;95966.00;;;19.20
30765;BMP180;494;48.744;10.106;2022-07-22T00:23:51;95727.00;;;19.20
30765;BMP180;494;48.744;10.106;2022-07-22T00:26:20;95965.00;;;19.20
30765;BMP180;494;48.744;10.106;2022-07-22T00:28:49;96136.00;;;19.30
30765;BMP180;494;48.744;10.106;2022-07-22T00:31:17;95611.00;;;19.20
30765;BMP180;494;48.744;10.106;2022-07-22T00:33:46;95873.00;;;18.60
30765;BMP180;494;48.744;10.106;2022-07-22T00:36:15;95835.00;;;19.20
30765;BMP180;494;48.744;10.106;2022-07-22T00:38:44;96096.00;;;19.00
30765;BMP180;494;48.744;10.106;2022-07-22T00:41:14;96173.00;;;19.00
30765;BMP180;494;48.744;10.106;2022-07-22T00:43:51;96136.00;;;19.00
30765;BMP180;494;48.744;10.106;2022-07-22T00:46:22;95774.00;;;18.90
30765;BMP180;494;48.744;10.106;2022-07-22T00:48:52;95382.00;;;18.60
30765;BMP180;494;48.744;10.106;2022-07-22T00:51:23;96127.00;;;18.00
30765;BMP180;494;48.744;10.106;2022-07-22T00:53:53;96208.00;;;18.60
30765;BMP180;494;48.744;10.106;2022-07-22T00:56:28;96106.00;;;17.70
30765;BMP180;494;48.744;10.106;2022-07-22T00:59:01;95684.00;;;18.90
30765;BMP180;494;48.744;10.106;2022-07-22T01:01:30;96314.00;;;17.00
30765;BMP180;494;48.744;10.106;2022-07-22T01:04:00;96302.00;;;18.70
30765;BMP180;494;48.744;10.106;2022-07-22T01:06:30;95857.00;;;18.60
30765;BMP180;494;48.744;10.106;2022-07-22T01:08:59;95925.00;;;18.50
30765;BMP180;494;48.744;10.106;2022-07-22T01:11:30;96177.00;;;18.50
30765;BMP180;494;48.744;10.106;2022-07-22T01:13:58;95090.00;;;18.40
30765;BMP180;494;48.744;10.106;2022-07-22T01:16:27;96236.00;;;18.40
30765;BMP180;494;48.744;10.106;2022-07-22T01:18:56;95617.00;;;18.40
30765;BMP180;494;48.744;10.106;2022-07-22T01:21:27;95248.00;;;18.20
30765;BMP180;494;48.744;10.106;2022-07-22T01:23:55;95437.00;;;16.60
30765;BMP180;494;48.744;10.106;2022-07-22T01:26:24;96078.00;;;15.90
30765;BMP180;494;48.744;10.106;2022-07-22T01:28:53;96186.00;;;18.20
30765;BMP180;494;48.744;10.106;2022-07-22T01:31:22;95964.00;;;18.30
30765;BMP180;494;48.744;10.106;2022-07-22T01:33:51;95861.00;;;17.50
30765;BMP180;494;48.744;10.106;2022-07-22T01:36:20;95997.00;;;15.80
30765;BMP180;494;48.744;10.106;2022-07-22T01:38:50;95847.00;;;17.20
30765;BMP180;494;48.744;10.106;2022-07-22T01:41:20;96229.00;;;15.60
30765;BMP180;494;48.744;10.106;2022-07-22T01:43:49;95442.00;;;18.30
30765;BMP180;494;48.744;10.106;2022-07-22T01:46:18;95523.00;;;17.50
30765;BMP180;494;48.744;10.106;2022-07-22T01:48:47;95866.00;;;18.20
30765;BMP180;494;48.744;10.106;2022-07-22T01:51:15;95154.00;;;18.30
30765;BMP180;494;48.744;10.106;2022-07-22T01:53:45;95883.00;;;18.40
30765;BMP180;494;48.744;10.106;2022-07-22T01:56:15;95791.00;;;18.30
30765;BMP180;494;48.744;10.106;2022-07-22T01:58:44;96221.00;;;16.30
30765;BMP180;494;48.744;10.106;2022-07-22T02:01:12;95890.00;;;18.20
30765;BMP180;494;48.744;10.106;2022-07-22T02:03:41;95426.00;;;18.10
30765;BMP180;494;48.744;10.106;2022-07-22T02:06:10;95291.00;;;18.40
30765;BMP180;494;48.744;10.106;2022-07-22T02:08:39;95984.00;;;17.00
30765;BMP180;494;48.744;10.106;2022-07-22T02:11:07;95207.00;;;17.20
30765;BMP180;494;48.744;10.106;2022-07-22T02:13:37;96068.00;;;18.30
30765;BMP180;494;48.744;10.106;2022-07-22T02:16:06;95951.00;;;18.40
30765;BMP180;494;48.744;10.106;2022-07-22T02:18:35;96099.00;;;18.30
30765;BMP180;494;48.744;10.106;2022-07-22T02:21:03;96155.00;;;18.20
30765;BMP180;494;48.744;10.106;2022-07-22T02:23:32;95859.00;;;17.20
30765;BMP180;494;48.744;10.106;2022-07-22T02:26:01;95249.00;;;17.70
30765;BMP180;494;48.744;10.106;2022-07-22T02:28:30;95527.00;;;18.20
30765;BMP180;494;48.744;10.106;2022-07-22T02:31:00;96075.00;;;18.20
30765;BMP180;494;48.744;10.106;2022-07-22T02:33:28;95539.00;;;16.00
30765;BMP180;494;48.744;10.106;2022-07-22T02:35:59;95943.00;;;17.60
30765;BMP180;494;48.744;10.106;2022-07-22T02:38:30;96012.00;;;18.00
30765;BMP180;494;48.744;10.106;2022-07-22T02:40:59;95851.00;;;18.10
30765;BMP180;494;48.744;10.106;2022-07-22T02:43:28;95843.00;;;17.70
30765;BMP180;494;48.744;10.106;2022-07-22T02:45:56;95886.00;;;18.00
30765;BMP180;494;48.744;10.106;2022-07-22T02:48:26;95916.00;;;14.30
30765;BMP180;494;48.744;10.106;2022-07-22T02:50:55;95976.00;;;18.10
30765;BMP180;494;48.744;10.106;2022-07-22T02:53:24;96063.00;;;14.80
30765;BMP180;494;48.744;10.106;2022-07-22T02:55:52;95948.00;;;18.00
30765;BMP180;494;48.744;10.106;2022-07-22T02:58:21;95775.00;;;17.90
30765;BMP180;494;48.744;10.106;2022-07-22T03:00:50;95839.00;;;17.90
30765;BMP180;494;48.744;10.106;2022-07-22T03:03:19;96018.00;;;17.80
30765;BMP180;494;48.744;10.106;2022-07-22T03:05:50;95731.00;;;16.60
30765;BMP180;494;48.744;10.106;2022-07-22T03:08:18;95953.00;;;17.60
30765;BMP180;494;48.744;10.106;2022-07-22T03:10:47;95825.00;;;17.80
30765;BMP180;494;48.744;10.106;2022-07-22T03:13:16;95895.00;;;16.30
30765;BMP180;494;48.744;10.106;2022-07-22T03:15:44;96124.00;;;17.80
30765;BMP180;494;48.744;10.106;2022-07-22T03:18:14;96240.00;;;17.80
30765;BMP180;494;48.744;10.106;2022-07-22T03:20:43;96190.00;;;17.80
30765;BMP180;494;48.744;10.106;2022-07-22T03:23:13;95203.00;;;17.80
30765;BMP180;494;48.744;10.106;2022-07-22T03:25:42;96191.00;;;17.80
30765;BMP180;494;48.744;10.106;2022-07-22T03:28:10;95791.00;;;16.50
30765;BMP180;494;48.744;10.106;2022-07-22T03:30:39;96138.00;;;17.80
30765;BMP180;494;48.744;10.106;2022-07-22T03:33:08;95227.00;;;16.70
30765;BMP180;494;48.744;10.106;2022-07-22T03:35:37;95709.00;;;17.70
30765;BMP180;494;48.744;10.106;2022-07-22T03:38:06;96245.00;;;17.80
30765;BMP180;494;48.744;10.106;2022-07-22T03:40:36;95890.00;;;17.00
30765;BMP180;494;48.744;10.106;2022-07-22T03:43:04;95970.00;;;17.80
30765;BMP180;494;48.744;10.106;2022-07-22T03:45:33;95961.00;;;17.70
30765;BMP180;494;48.744;10.106;2022-07-22T03:48:02;95785.00;;;17.50
30765;BMP180;494;48.744;10.106;2022-07-22T03:50:31;95863.00;;;15.90
30765;BMP180;494;48.744;10.106;2022-07-22T03:52:59;95376.00;;;17.40
30765;BMP180;494;48.744;10.106;2022-07-22T03:55:28;95803.00;;;17.40
30765;BMP180;494;48.744;10.106;2022-07-22T03:57:58;96085.00;;;17.70
30765;BMP180;494;48.744;10.106;2022-07-22T04:00:27;96187.00;;;15.50
30765;BMP180;494;48.744;10.106;2022-07-22T04:02:56;95793.00;;;15.50
30765;BMP180;494;48.744;10.106;2022-07-22T04:05:24;95963.00;;;17.60
30765;BMP180;494;48.744;10.106;2022-07-22T04:07:53;95903.00;;;17.70
30765;BMP180;494;48.744;10.106;2022-07-22T04:10:22;95939.00;;;15.80
30765;BMP180;494;48.744;10.106;2022-07-22T04:12:53;95649.00;;;17.80
30765;BMP180;494;48.744;10.106;2022-07-22T04:15:23;96149.00;;;17.70
30765;BMP180;494;48.744;10.106;2022-07-22T04:17:52;96007.00;;;16.40
30765;BMP180;494;48.744;10.106;2022-07-22T04:20:21;96166.00;;;16.00
30765;BMP180;494;48.744;10.106;2022-07-22T04:22:50;96166.00;;;17.80
30765;BMP180;494;48.744;10.106;2022-07-22T04:25:19;96232.00;;;17.70
30765;BMP180;494;48.744;10.106;2022-07-22T04:27:48;96246.00;;;16.00
30765;BMP180;494;48.744;10.106;2022-07-22T04:30:18;96219.00;;;15.80
30765;BMP180;494;48.744;10.106;2022-07-22T04:32:48;95783.00;;;15.70
30765;BMP180;494;48.744;10.106;2022-07-22T04:35:16;95937.00;;;17.50
30765;BMP180;494;48.744;10.106;2022-07-22T04:37:45;96154.00;;;17.70
30765;BMP180;494;48.744;10.106;2022-07-22T04:40:14;96000.00;;;17.60
30765;BMP180;494;48.744;10.106;2022-07-22T04:42:42;96001.00;;;17.40
30765;BMP180;494;48.744;10.106;2022-07-22T04:45:12;95966.00;;;15.10
30765;BMP180;494;48.744;10.106;2022-07-22T04:47:41;95666.00;;;17.90
30765;BMP180;494;48.744;10.106;2022-07-22T04:50:11;95696.00;;;18.00
30765;BMP180;494;48.744;10.106;2022-07-22T04:52:40;95469.00;;;16.90
30765;BMP180;494;48.744;10.106;2022-07-22T04:55:15;96147.00;;;17.10
30765;BMP180;494;48.744;10.106;2022-07-22T04:57:45;95815.00;;;17.60
30765;BMP180;494;48.744;10.106;2022-07-22T05:00:15;95640.00;;;18.30
30765;BMP180;494;48.744;10.106;2022-07-22T05:02:44;96078.00;;;18.30
30765;BMP180;494;48.744;10.106;2022-07-22T05:05:14;96221.00;;;17.30
30765;BMP180;494;48.744;10.106;2022-07-22T05:07:43;96166.00;;;18.50
30765;BMP180;494;48.744;10.106;2022-07-22T05:10:12;95387.00;;;18.70
30765;BMP180;494;48.744;10.106;2022-07-22T05:12:47;95879.00;;;17.50
30765;BMP180;494;48.744;10.106;2022-07-22T05:15:18;96201.00;;;18.90
30765;BMP180;494;48.744;10.106;2022-07-22T05:17:47;95922.00;;;18.70
30765;BMP180;494;48.744;10.106;2022-07-22T05:20:17;96208.00;;;17.90
30765;BMP180;494;48.744;10.106;2022-07-22T05:22:46;96259.00;;;19.20
30765;BMP180;494;48.744;10.106;2022-07-22T05:25:15;95072.00;;;19.50
30765;BMP180;494;48.744;10.106;2022-07-22T05:27:50;95369.00;;;18.00
30765;BMP180;494;48.744;10.106;2022-07-22T05:30:20;95539.00;;;19.60
30765;BMP180;494;48.744;10.106;2022-07-22T05:32:51;95503.00;;;17.10
30765;BMP180;494;48.744;10.106;2022-07-22T05:35:21;96008.00;;;18.90
30765;BMP180;494;48.744;10.106;2022-07-22T05:37:49;96198.00;;;19.80
30765;BMP180;494;48.744;10.106;2022-07-22T05:40:18;95470.00;;;19.90
30765;BMP180;494;48.744;10.106;2022-07-22T05:42:47;95752.00;;;17.30
30765;BMP180;494;48.744;10.106;2022-07-22T05:45:17;95618.00;;;20.10
30765;BMP180;494;48.744;10.106;2022-07-22T05:47:46;95336.00;;;20.20
30765;BMP180;494;48.744;10.106;2022-07-22T05:50:15;96262.00;;;20.50
30765;BMP180;494;48.744;10.106;2022-07-22T05:52:45;95478.00;;;19.20
30765;BMP180;494;48.744;10.106;2022-07-22T05:55:14;95343.00;;;18.50
30765;BMP180;494;48.744;10.106;2022-07-22T05:57:42;96034.00;;;19.70
30765;BMP180;494;48.744;10.106;2022-07-22T06:00:12;95818.00;;;20.60
30765;BMP180;494;48.744;10.106;2022-07-22T06:02:42;95991.00;;;21.20
30765;BMP180;494;48.744;10.106;2022-07-22T06:05:12;95890.00;;;19.20
30765;BMP180;494;48.744;10.106;2022-07-22T06:08:03;96136.00;;;21.60
30765;BMP180;494;48.744;10.106;2022-07-22T06:10:33;95851.00;;;22.00
30765;BMP180;494;48.744;10.106;2022-07-22T06:13:01;95635.00;;;20.40
30765;BMP180;494;48.744;10.106;2022-07-22T06:15:30;95686.00;;;21.40
30765;BMP180;494;48.744;10.106;2022-07-22T06:17:59;95770.00;;;22.60
30765;BMP180;494;48.744;10.106;2022-07-22T06:20:27;96051.00;;;22.80
30765;BMP180;494;48.744;10.106;2022-07-22T06:22:56;96060.00;;;23.00
30765;BMP180;494;48.744;10.106;2022-07-22T06:25:26;96049.00;;;23.20
30765;BMP180;494;48.744;10.106;2022-07-22T06:28:11;95875.00;;;23.30
30765;BMP180;494;48.744;10.106;2022-07-22T06:30:40;96045.00;;;23.40
30765;BMP180;494;48.744;10.106;2022-07-22T06:33:08;96052.00;;;23.60
30765;BMP180;494;48.744;10.106;2022-07-22T06:35:39;96069.00;;;23.90
30765;BMP180;494;48.744;10.106;2022-07-22T06:38:09;95922.00;;;24.00
30765;BMP180;494;48.744;10.106;2022-07-22T06:40:56;96079.00;;;24.10
30765;BMP180;494;48.744;10.106;2022-07-22T06:43:27;95921.00;;;24.40
30765;BMP180;494;48.744;10.106;2022-07-22T06:45:56;96055.00;;;24.30
30765;BMP180;494;48.744;10.106;2022-07-22T06:48:24;96051.00;;;24.80
30765;BMP180;494;48.744;10.106;2022-07-22T06:50:53;95666.00;;;25.10
30765;BMP180;494;48.744;10.106;2022-07-22T06:53:21;96053.00;;;25.10
30765;BMP180;494;48.744;10.106;2022-07-22T06:55:50;96048.00;;;25.30
30765;BMP180;494;48.744;10.106;2022-07-22T06:58:20;96051.00;;;25.50
30765;BMP180;494;48.744;10.106;2022-07-22T07:00:49;96050.00;;;25.80
30765;BMP180;494;48.744;10.106;2022-07-22T07:03:17;96051.00;;;25.70
30765;BMP180;494;48.744;10.106;2022-07-22T07:06:03;96051.00;;;26.10
30765;BMP180;494;48.744;10.106;2022-07-22T07:08:32;96004.00;;;26.20
30765;BMP180;494;48.744;10.106;2022-07-22T07:11:01;96011.00;;;26.50
30765;BMP180;494;48.744;10.106;2022-07-22T07:13:31;96054.00;;;26.90
30765;BMP180;494;48.744;10.106;2022-07-22T07:16:00;96035.00;;;26.90
30765;BMP180;494;48.744;10.106;2022-07-22T07:18:29;96062.00;;;27.00
30765;BMP180;494;48.744;10.106;2022-07-22T07:20:57;95988.00;;;27.10
30765;BMP180;494;48.744;10.106;2022-07-22T07:23:26;96051.00;;;27.40
30765;BMP180;494;48.744;10.106;2022-07-22T07:25:55;96045.00;;;27.70
30765;BMP180;494;48.744;10.106;2022-07-22T07:28:24;96056.00;;;27.70
30765;BMP180;494;48.744;10.106;2022-07-22T07:30:54;95978.00;;;26.70
30765;BMP180;494;48.744;10.106;2022-07-22T07:33:23;96039.00;;;28.00
30765;BMP180;494;48.744;10.106;2022-07-22T07:35:51;96065.00;;;28.20
30765;BMP180;494;48.744;10.106;2022-07-22T07:38:20;95897.00;;;28.50
30765;BMP180;494;48.744;10.106;2022-07-22T07:40:49;96043.00;;;28.60
30765;BMP180;494;48.744;10.106;2022-07-22T07:43:17;95694.00;;;28.50
30765;BMP180;494;48.744;10.106;2022-07-22T07:45:47;96030.00;;;28.40
30765;BMP180;494;48.744;10.106;2022-07-22T07:48:17;96032.00;;;28.80
30765;BMP180;494;48.744;10.106;2022-07-22T07:50:46;95792.00;;;28.20
30765;BMP180;494;48.744;10.106;2022-07-22T07:53:15;96033.00;;;28.50
30765;BMP180;494;48.744;10.106;2022-07-22T07:55:46;95956.00;;;28.70
30765;BMP180;494;48.744;10.106;2022-07-22T07:58:14;96068.00;;;28.30
30765;BMP180;494;48.744;10.106;2022-07-22T08:00:43;96025.00;;;28.50
30765;BMP180;494;48.744;10.106;2022-07-22T08:03:13;95838.00;;;29.20
30765;BMP180;494;48.744;10.106;2022-07-22T08:05:44;95991.00;;;29.40
30765;BMP180;494;48.744;10.106;2022-07-22T08:08:12;95877.00;;;29.20
30765;BMP180;494;48.744;10.106;2022-07-22T08:10:42;95959.00;;;29.40
30765;BMP180;494;48.744;10.106;2022-07-22T08:13:27;95945.00;;;29.70
30765;BMP180;494;48.744;10.106;2022-07-22T08:15:56;96022.00;;;29.40
30765;BMP180;494;48.744;10.106;2022-07-22T08:18:26;96086.00;;;29.70
30765;BMP180;494;48.744;10.106;2022-07-22T08:20:57;96075.00;;;29.90
30765;BMP180;494;48.744;10.106;2022-07-22T08:23:27;96049.00;;;30.00
30765;BMP180;494;48.744;10.106;2022-07-22T08:25:55;95526.00;;;30.20
30765;BMP180;494;48.744;10.106;2022-07-22T08:28:24;95760.00;;;29.70
30765;BMP180;494;48.744;10.106;2022-07-22T08:30:53;96016.00;;;30.50
30765;BMP180;494;48.744;10.106;2022-07-22T08:33:21;95692.00;;;30.60
30765;BMP180;494;48.744;10.106;2022-07-22T08:35:50;95956.00;;;30.70
30765;BMP180;494;48.744;10.106;2022-07-22T08:38:20;96024.00;;;30.70
30765;BMP180;494;48.744;10.106;2022-07-22T08:40:49;96025.00;;;30.80
30765;BMP180;494;48.744;10.106;2022-07-22T08:43:30;96020.00;;;31.10
30765;BMP180;494;48.744;10.106;2022-07-22T08:45:59;95974.00;;;30.40
30765;BMP180;494;48.744;10.106;2022-07-22T08:48:28;95955.00;;;31.30
30765;BMP180;494;48.744;10.106;2022-07-22T08:50:56;96021.00;;;31.00
30765;BMP180;494;48.744;10.106;2022-07-22T08:53:26;95772.00;;;31.10
30765;BMP180;494;48.744;10.106;2022-07-22T08:55:55;95975.00;;;31.40
30765;BMP180;494;48.744;10.106;2022-07-22T08:58:25;95972.00;;;31.40
30765;BMP180;494;48.744;10.106;2022-07-22T09:01:09;96014.00;;;31.10
30765;BMP180;494;48.744;10.106;2022-07-22T09:03:46;95872.00;;;31.50
30765;BMP180;494;48.744;10.106;2022-07-22T09:06:18;95988.00;;;31.70
30765;BMP180;494;48.744;10.106;2022-07-22T09:08:54;96011.00;;;31.80
30765;BMP180;494;48.744;10.106;2022-07-22T09:11:25;95832.00;;;31.60
30765;BMP180;494;48.744;10.106;2022-07-22T09:13:53;96008.00;;;31.80
30765;BMP180;494;48.744;10.106;2022-07-22T09:16:41;96002.00;;;31.90
30765;BMP180;494;48.744;10.106;2022-07-22T09:19:10;96003.00;;;31.90
30765;BMP180;494;48.744;10.106;2022-07-22T09:21:42;96003.00;;;32.00
30765;BMP180;494;48.744;10.106;2022-07-22T09:24:28;95683.00;;;32.20
30765;BMP180;494;48.744;10.106;2022-07-22T09:26:56;95856.00;;;32.20
30765;BMP180;494;48.744;10.106;2022-07-22T09:29:26;95999.00;;;31.90
30765;BMP180;494;48.744;10.106;2022-07-22T09:32:06;95930.00;;;31.90
30765;BMP180;494;48.744;10.106;2022-07-22T09:34:35;95780.00;;;32.10
30765;BMP180;494;48.744;10.106;2022-07-22T09:37:04;96002.00;;;32.40
30765;BMP180;494;48.744;10.106;2022-07-22T09:39:34;95886.00;;;32.80
30765;BMP180;494;48.744;10.106;2022-07-22T09:42:06;95913.00;;;32.90
30765;BMP180;494;48.744;10.106;2022-07-22T09:44:35;95975.00;;;33.20
30765;BMP180;494;48.744;10.106;2022-07-22T09:47:04;95971.00;;;33.30
30765;BMP180;494;48.744;10.106;2022-07-22T09:49:36;95981.00;;;33.10
30765;BMP180;494;48.744;10.106;2022-07-22T09:52:06;95987.00;;;32.70
30765;BMP180;494;48.744;10.106;2022-07-22T09:54:37;95977.00;;;33.00
30765;BMP180;494;48.744;10.106;2022-07-22T09:57:06;95859.00;;;33.00
30765;BMP180;494;48.744;10.106;2022-07-22T09:59:35;95793.00;;;33.20
30765;BMP180;494;48.744;10.106;2022-07-22T10:02:05;96010.00;;;33.30
30765;BMP180;494;48.744;10.106;2022-07-22T10:04:35;95984.00;;;33.40
30765;BMP180;494;48.744;10.106;2022-07-22T10:07:05;95860.00;;;33.20
30765;BMP180;494;48.744;10.106;2022-07-22T10:09:37;95981.00;;;33.40
30765;BMP180;494;48.744;10.106;2022-07-22T10:12:07;95980.00;;;33.70
30765;BMP180;494;48.744;10.106;2022-07-22T10:14:36;95999.00;;;33.90
30765;BMP180;494;48.744;10.106;2022-07-22T10:17:05;95936.00;;;34.10
30765;BMP180;494;48.744;10.106;2022-07-22T10:19:35;95767.00;;;34.30
30765;BMP180;494;48.744;10.106;2022-07-22T10:22:04;95777.00;;;34.40
30765;BMP180;494;48.744;10.106;2022-07-22T10:24:32;95949.00;;;34.20
30765;BMP180;494;48.744;10.106;2022-07-22T10:27:02;95965.00;;;34.30
30765;BMP180;494;48.744;10.106;2022-07-22T10:29:39;95910.00;;;34.00
30765;BMP180;494;48.744;10.106;2022-07-22T10:32:23;95845.00;;;34.30
30765;BMP180;494;48.744;10.106;2022-07-22T10:35:21;95956.00;;;34.60
30765;BMP180;494;48.744;10.106;2022-07-22T10:37:59;95963.00;;;34.70
30765;BMP180;494;48.744;10.106;2022-07-22T10:40:30;95951.00;;;34.40
30765;BMP180;494;48.744;10.106;2022-07-22T10:43:09;95906.00;;;33.80
30765;BMP180;494;48.744;10.106;2022-07-22T10:45:41;95591.00;;;33.40
30765;BMP180;494;48.744;10.106;2022-07-22T10:48:16;95597.00;;;34.70
30765;BMP180;494;48.744;10.106;2022-07-22T10:50:54;95983.00;;;34.70
30765;BMP180;494;48.744;10.106;2022-07-22T10:53:54;95773.00;;;34.00
30765;BMP180;494;48.744;10.106;2022-07-22T10:56:26;95970.00;;;34.70
30765;BMP180;494;48.744;10.106;2022-07-22T10:59:07;95782.00;;;34.60
30765;BMP180;494;48.744;10.106;2022-07-22T11:01:39;95943.00;;;35.10
30765;BMP180;494;48.744;10.106;2022-07-22T11:04:14;95942.00;;;34.60
30765;BMP180;494;48.744;10.106;2022-07-22T11:06:47;95927.00;;;35.20
30765;BMP180;494;48.744;10.106;2022-07-22T11:09:18;95506.00;;;35.10
30765;BMP180;494;48.744;10.106;2022-07-22T11:11:49;95932.00;;;35.10
30765;BMP180;494;48.744;10.106;2022-07-22T11:14:27;95865.00;;;35.20
30765;BMP180;494;48.744;10.106;2022-07-22T11:17:03;95916.00;;;35.30
30765;BMP180;494;48.744;10.106;2022-07-22T11:19:32;95888.00;;;35.40
30765;BMP180;494;48.744;10.106;2022-07-22T11:22:04;95782.00;;;35.30
30765;BMP180;494;48.744;10.106;2022-07-22T11:24:33;95914.00;;;35.70
30765;BMP180;494;48.744;10.106;2022-07-22T11:27:03;95749.00;;;35.50
30765;BMP180;494;48.744;10.106;2022-07-22T11:29:37;95920.00;;;35.60
30765;BMP180;494;48.744;10.106;2022-07-22T11:32:09;95938.00;;;35.90
30765;BMP180;494;48.744;10.106;2022-07-22T11:34:41;95925.00;;;36.00
30765;BMP180;494;48.744;10.106;2022-07-22T11:37:13;95823.00;;;36.20
30765;BMP180;494;48.744;10.106;2022-07-22T11:39:42;95769.00;;;36.40
30765;BMP180;494;48.744;10.106;2022-07-22T11:42:11;95904.00;;;35.20
30765;BMP180;494;48.744;10.106;2022-07-22T11:44:41;95624.00;;;36.40
30765;BMP180;494;48.744;10.106;2022-07-22T11:47:15;95895.00;;;36.60
30765;BMP180;494;48.744;10.106;2022-07-22T11:49:46;95904.00;;;36.70
30765;BMP180;494;48.744;10.106;2022-07-22T11:52:16;95883.00;;;36.00
30765;BMP180;494;48.744;10.106;2022-07-22T11:54:45;95851.00;;;36.80
30765;BMP180;494;48.744;10.106;2022-07-22T11:57:15;95897.00;;;37.00
30765;BMP180;494;48.744;10.106;2022-07-22T11:59:45;95743.00;;;37.30
30765;BMP180;494;48.744;10.106;2022-07-22T12:02:14;95928.00;;;36.50
30765;BMP180;494;48.744;10.106;2022-07-22T12:04:46;95828.00;;;37.50
30765;BMP180;494;48.744;10.106;2022-07-22T12:07:16;95794.00;;;37.40
30765;BMP180;494;48.744;10.106;2022-07-22T12:09:45;95771.00;;;37.70
30765;BMP180;494;48.744;10.106;2022-07-22T12:12:14;95754.00;;;37.30
30765;BMP180;494;48.744;10.106;2022-07-22T12:14:47;95748.00;;;37.60
30765;BMP180;494;48.744;10.106;2022-07-22T12:17:16;95653.00;;;37.80
30765;BMP180;494;48.744;10.106;2022-07-22T12:19:45;95746.00;;;37.50
30765;BMP180;494;48.744;10.106;2022-07-22T12:22:21;95899.00;;;37.60
30765;BMP180;494;48.744;10.106;2022-07-22T12:25:00;95879.00;;;37.50
30765;BMP180;494;48.744;10.106;2022-07-22T12:27:29;95860.00;;;38.00
30765;BMP180;494;48.744;10.106;2022-07-22T12:29:59;95527.00;;;38.30
30765;BMP180;494;48.744;10.106;2022-07-22T12:32:29;95814.00;;;38.60
30765;BMP180;494;48.744;10.106;2022-07-22T12:35:00;95873.00;;;38.50
30765;BMP180;494;48.744;10.106;2022-07-22T12:37:31;95775.00;;;37.90
30765;BMP180;494;48.744;10.106;2022-07-22T12:40:03;95727.00;;;37.70
30765;BMP180;494;48.744;10.106;2022-07-22T12:42:34;95852.00;;;38.60
30765;BMP180;494;48.744;10.106;2022-07-22T12:45:08;95770.00;;;38.70
30765;BMP180;494;48.744;10.106;2022-07-22T12:47:44;95880.00;;;39.10
30765;BMP180;494;48.744;10.106;2022-07-22T12:50:26;95873.00;;;38.90
30765;BMP180;494;48.744;10.106;2022-07-22T12:52:57;95873.00;;;39.40
30765;BMP180;494;48.744;10.106;2022-07-22T12:55:48;95877.00;;;39.70
30765;BMP180;494;48.744;10.106;2022-07-22T12:58:19;95733.00;;;38.30
30765;BMP180;494;48.744;10.106;2022-07-22T13:00:52;95851.00;;;39.60
30765;BMP180;494;48.744;10.106;2022-07-22T13:03:22;95738.00;;;39.70
30765;BMP180;494;48.744;10.106;2022-07-22T13:05:55;95813.00;;;39.80
30765;BMP180;494;48.744;10.106;2022-07-22T13:08:25;95843.00;;;39.10
30765;BMP180;494;48.744;10.106;2022-07-22T13:11:07;95910.00;;;40.30
30765;BMP180;494;48.744;10.106;2022-07-22T13:13:36;95772.00;;;40.40
30765;BMP180;494;48.744;10.106;2022-07-22T13:16:06;95778.00;;;40.60
30765;BMP180;494;48.744;10.106;2022-07-22T13:18:35;95836.00;;;40.50
30765;BMP180;494;48.744;10.106;2022-07-22T13:21:03;95757.00;;;40.40
30765;BMP180;494;48.744;10.106;2022-07-22T13:23:32;95771.00;;;39.80
30765;BMP180;494;48.744;10.106;2022-07-22T13:26:01;95872.00;;;40.50
30765;BMP180;494;48.744;10.106;2022-07-22T13:28:29;95611.00;;;40.60
30765;BMP180;494;48.744;10.106;2022-07-22T13:30:58;95745.00;;;40.60
30765;BMP180;494;48.744;10.106;2022-07-22T13:33:28;95773.00;;;40.90
30765;BMP180;494;48.744;10.106;2022-07-22T13:35:56;95808.00;;;40.80
30765;BMP180;494;48.744;10.106;2022-07-22T13:38:25;95803.00;;;41.00
30765;BMP180;494;48.744;10.106;2022-07-22T13:40:53;95834.00;;;40.70
30765;BMP180;494;48.744;10.106;2022-07-22T13:43:24;95754.00;;;41.10
30765;BMP180;494;48.744;10.106;2022-07-22T13:45:53;95755.00;;;41.20
30765;BMP180;494;48.744;10.106;2022-07-22T13:48:23;95627.00;;;41.20
30765;BMP180;494;48.744;10.106;2022-07-22T13:50:54;95801.00;;;41.70
30765;BMP180;494;48.744;10.106;2022-07-22T13:53:22;95841.00;;;41.30
30765;BMP180;494;48.744;10.106;2022-07-22T13:55:51;95767.00;;;42.10
30765;BMP180;494;48.744;10.106;2022-07-22T13:58:19;95842.00;;;41.70
30765;BMP180;494;48.744;10.106;2022-07-22T14:00:48;95833.00;;;41.00
30765;BMP180;494;48.744;10.106;2022-07-22T14:03:16;95819.00;;;41.40
30765;BMP180;494;48.744;10.106;2022-07-22T14:05:45;95815.00;;;41.50
30765;BMP180;494;48.744;10.106;2022-07-22T14:08:15;95666.00;;;41.90
30765;BMP180;494;48.744;10.106;2022-07-22T14:10:44;95806.00;;;42.10
30765;BMP180;494;48.744;10.106;2022-07-22T14:13:13;95562.00;;;41.60
30765;BMP180;494;48.744;10.106;2022-07-22T14:15:42;95758.00;;;41.10
30765;BMP180;494;48.744;10.106;2022-07-22T14:18:11;95653.00;;;41.50
30765;BMP180;494;48.744;10.106;2022-07-22T14:20:40;95806.00;;;42.10
30765;BMP180;494;48.744;10.106;2022-07-22T14:23:09;95825.00;;;42.50
30765;BMP180;494;48.744;10.106;2022-07-22T14:25:39;95715.00;;;41.50
30765;BMP180;494;48.744;10.106;2022-07-22T14:28:08;95482.00;;;42.30
30765;BMP180;494;48.744;10.106;2022-07-22T14:30:57;95779.00;;;41.80
30765;BMP180;494;48.744;10.106;2022-07-22T14:33:25;95766.00;;;43.20
30765;BMP180;494;48.744;10.106;2022-07-22T14:35:54;95679.00;;;42.80
30765;BMP180;494;48.744;10.106;2022-07-22T14:38:22;95812.00;;;43.30
30765;BMP180;494;48.744;10.106;2022-07-22T14:40:52;95792.00;;;43.40